Time;durP1;ratioP1;P1;durP2;ratioP2;P2;SDS_P1;SDS_P2;PMS_P1;PMS_P2;Temp;Humidity;BMP_temperature;BMP_pressure;BME280_temperature;BME280_humidity;BME280_pressure;Samples;Min_cycle;Max_cycle;Signal;HPM_P1;HPM_P2
2021/07/14 00:00:16;;;;;;;19.10;17.33;;;20.50;99.90;;;;;;4939675;28;20210;-84
2021/07/14 00:03:07;;;;;;;18.07;16.47;;;20.40;99.90;;;;;;4921246;29;20625;-84
2021/07/14 00:05:35;;;;;;;19.40;17.40;;;20.30;99.90;;;;;;4920004;29;20213;-86
2021/07/14 00:08:06;;;;;;;19.80;17.60;;;20.30;99.90;;;;;;4925455;29;20210;-85
2021/07/14 00:10:34;;;;;;;19.87;17.77;;;20.20;99.90;;;;;;4919569;29;20484;-84
2021/07/14 00:13:09;;;;;;;18.40;16.70;;;20.20;99.90;;;;;;4922123;29;20567;-86
2021/07/14 00:24:05;;;;;;;19.03;17.13;;;20.10;99.90;;;;;;4933237;28;20241;-84
2021/07/14 00:26:33;;;;;;;18.23;16.37;;;20.20;99.90;;;;;;4948252;28;20421;-85
2021/07/14 00:29:05;;;;;;;19.53;17.53;;;20.10;99.90;;;;;;4942247;28;20242;-85
2021/07/14 00:31:33;;;;;;;19.07;17.17;;;20.10;99.90;;;;;;4927194;28;20784;-85
2021/07/14 00:34:09;;;;;;;18.93;17.10;;;20.10;99.90;;;;;;4924782;29;20210;-87
2021/07/14 00:36:38;;;;;;;20.70;17.17;;;20.10;99.90;;;;;;4936413;28;20190;-84
2021/07/14 00:39:06;;;;;;;21.23;19.13;;;20.00;99.90;;;;;;4947547;28;20233;-85
2021/07/14 00:41:35;;;;;;;19.97;17.97;;;20.00;99.90;;;;;;4943361;28;20339;-85
2021/07/14 00:44:05;;;;;;;19.97;18.07;;;19.90;99.90;;;;;;4939573;28;20237;-85
2021/07/14 00:46:34;;;;;;;19.77;17.77;;;19.90;99.90;;;;;;4921100;29;20869;-84
2021/07/14 00:49:05;;;;;;;19.73;17.80;;;19.90;99.90;;;;;;4921524;29;20641;-86
2021/07/14 00:51:34;;;;;;;20.50;18.50;;;19.80;99.90;;;;;;4918863;29;20198;-84
2021/07/14 00:54:03;;;;;;;20.97;18.87;;;19.80;99.90;;;;;;4916302;29;20214;-84
2021/07/14 00:56:32;;;;;;;20.27;18.37;;;19.70;99.90;;;;;;4919761;29;20551;-84
2021/07/14 00:59:01;;;;;;;20.33;18.33;;;19.80;99.90;;;;;;4917037;29;20233;-84
2021/07/14 01:01:31;;;;;;;20.87;19.07;;;19.80;99.90;;;;;;4913640;29;20647;-87
2021/07/14 01:04:08;;;;;;;22.17;19.97;;;19.70;99.90;;;;;;4923583;29;20284;-85
2021/07/14 01:06:48;;;;;;;21.83;19.70;;;19.70;99.90;;;;;;4914516;29;22049;-85
2021/07/14 01:09:22;;;;;;;20.07;18.17;;;19.60;99.90;;;;;;4923243;29;20206;-85
2021/07/14 01:11:56;;;;;;;21.10;18.90;;;19.60;99.90;;;;;;4921572;29;20210;-85
2021/07/14 01:14:36;;;;;;;20.57;18.53;;;19.70;99.90;;;;;;4921037;29;20872;-86
2021/07/14 01:17:10;;;;;;;20.30;18.43;;;19.70;99.90;;;;;;4942545;29;20227;-87
2021/07/14 01:20:02;;;;;;;23.13;20.93;;;19.60;99.90;;;;;;4922732;29;20466;-87
2021/07/14 01:22:41;;;;;;;21.47;19.47;;;19.60;99.90;;;;;;4928393;29;20199;-85
2021/07/14 01:25:20;;;;;;;21.53;19.40;;;19.60;99.90;;;;;;4939181;29;20198;-87
2021/07/14 01:27:52;;;;;;;20.60;18.57;;;19.50;99.90;;;;;;4949188;28;20209;-86
2021/07/14 01:30:21;;;;;;;21.87;19.77;;;19.40;99.90;;;;;;4920996;29;20226;-87
2021/07/14 01:32:52;;;;;;;24.37;21.97;;;19.40;99.90;;;;;;4928938;28;20206;-86
2021/07/14 01:35:24;;;;;;;22.50;20.17;;;19.40;99.90;;;;;;4925008;28;20293;-85
2021/07/14 01:37:55;;;;;;;22.90;20.33;;;19.40;99.90;;;;;;4923204;29;20214;-86
2021/07/14 01:40:25;;;;;;;23.37;21.17;;;19.30;99.90;;;;;;4924591;29;20564;-86
2021/07/14 01:42:58;;;;;;;23.93;21.53;;;19.30;99.90;;;;;;4924688;28;20561;-85
2021/07/14 01:45:30;;;;;;;23.90;21.53;;;19.30;99.90;;;;;;4925275;29;20194;-84
2021/07/14 01:48:01;;;;;;;25.60;22.93;;;19.20;99.90;;;;;;4924754;29;20273;-84
2021/07/14 01:50:32;;;;;;;24.70;22.20;;;19.20;99.90;;;;;;4926516;29;20580;-84
2021/07/14 01:53:02;;;;;;;24.07;21.40;;;19.20;99.90;;;;;;4950681;28;20208;-87
2021/07/14 01:55:33;;;;;;;23.03;20.73;;;19.20;99.90;;;;;;4934256;29;20206;-87
2021/07/14 01:58:05;;;;;;;22.50;20.17;;;19.20;99.90;;;;;;4950319;28;20245;-84
2021/07/14 02:00:35;;;;;;;22.60;20.40;;;19.30;99.90;;;;;;4922235;29;20395;-85
2021/07/14 02:03:08;;;;;;;22.00;19.80;;;19.40;99.90;;;;;;4932242;28;20202;-85
2021/07/14 02:05:43;;;;;;;22.63;20.23;;;19.40;99.90;;;;;;4940695;29;20191;-86
2021/07/14 02:08:13;;;;;;;22.23;19.93;;;19.40;99.90;;;;;;4928289;29;20193;-84
2021/07/14 02:10:42;;;;;;;21.67;19.37;;;19.50;99.90;;;;;;4947833;28;20410;-86
2021/07/14 02:13:13;;;;;;;22.80;20.50;;;19.50;99.90;;;;;;4938423;29;20257;-85
2021/07/14 02:15:44;;;;;;;23.53;21.03;;;19.40;99.90;;;;;;4944832;28;20548;-84
2021/07/14 02:18:15;;;;;;;21.77;19.63;;;19.40;99.90;;;;;;4945940;29;20405;-84
2021/07/14 02:20:44;;;;;;;22.33;20.17;;;19.40;99.90;;;;;;4946716;28;20234;-85
2021/07/14 02:23:13;;;;;;;21.93;19.83;;;19.30;99.90;;;;;;4946686;28;20205;-86
2021/07/14 02:25:42;;;;;;;22.33;20.17;;;19.40;99.90;;;;;;4946713;28;20253;-85
2021/07/14 02:28:12;;;;;;;24.27;21.23;;;19.40;99.90;;;;;;4949018;28;20206;-85
2021/07/14 02:30:42;;;;;;;22.17;19.87;;;19.40;99.90;;;;;;4937082;29;20430;-84
2021/07/14 02:33:12;;;;;;;21.93;19.83;;;19.40;99.90;;;;;;4934739;28;20673;-85
2021/07/14 02:35:43;;;;;;;22.83;20.60;;;19.40;99.90;;;;;;4924165;28;20286;-84
2021/07/14 02:38:16;;;;;;;23.00;20.70;;;19.40;99.90;;;;;;4929325;29;21007;-86
2021/07/14 02:40:52;;;;;;;23.03;20.53;;;19.40;99.90;;;;;;4926301;29;20226;-87
2021/07/14 02:43:27;;;;;;;23.30;20.40;;;19.30;99.90;;;;;;4921880;28;20474;-84
2021/07/14 02:45:59;;;;;;;22.80;20.37;;;19.30;99.90;;;;;;4922954;29;20213;-84
2021/07/14 02:48:29;;;;;;;23.20;20.73;;;19.30;99.90;;;;;;4922832;29;20759;-84
2021/07/14 02:51:02;;;;;;;22.17;19.97;;;19.30;99.90;;;;;;4919380;29;20211;-86
2021/07/14 02:53:37;;;;;;;24.07;21.57;;;19.30;99.90;;;;;;4919831;29;20671;-85
2021/07/14 02:56:14;;;;;;;22.57;20.47;;;19.40;99.90;;;;;;4918632;29;20213;-85
2021/07/14 02:58:55;;;;;;;23.87;21.30;;;19.30;99.90;;;;;;4918775;29;20234;-85
2021/07/14 03:01:25;;;;;;;22.60;20.30;;;19.30;99.90;;;;;;4920206;28;20467;-85
2021/07/14 03:03:54;;;;;;;23.47;20.50;;;19.40;99.90;;;;;;4924834;29;20207;-85
2021/07/14 03:06:24;;;;;;;23.97;21.40;;;19.30;99.90;;;;;;4925888;29;20222;-86
2021/07/14 03:09:02;;;;;;;22.93;20.63;;;19.30;99.90;;;;;;4917609;29;20672;-84
2021/07/14 03:11:34;;;;;;;23.27;20.80;;;19.30;99.90;;;;;;4921484;29;20201;-86
2021/07/14 03:14:07;;;;;;;23.30;21.00;;;19.30;99.90;;;;;;4923481;29;20202;-85
2021/07/14 03:16:37;;;;;;;22.83;20.47;;;19.30;99.90;;;;;;4921780;29;20210;-85
2021/07/14 03:19:08;;;;;;;23.10;20.90;;;19.40;99.90;;;;;;4923095;29;20276;-85
2021/07/14 03:21:37;;;;;;;22.97;19.40;;;19.40;99.90;;;;;;4917781;29;20230;-85
2021/07/14 03:24:08;;;;;;;22.13;19.83;;;19.50;99.90;;;;;;4924931;29;20739;-84
2021/07/14 03:26:40;;;;;;;21.57;19.47;;;19.50;99.90;;;;;;4919386;29;20206;-85
2021/07/14 03:29:14;;;;;;;21.13;19.03;;;19.50;99.90;;;;;;4911717;29;20218;-85
2021/07/14 03:31:43;;;;;;;20.70;18.67;;;19.60;99.90;;;;;;4940018;29;20197;-85
2021/07/14 03:34:12;;;;;;;22.57;20.27;;;19.70;99.90;;;;;;4943169;28;21111;-84
2021/07/14 03:36:45;;;;;;;22.53;20.27;;;19.70;99.90;;;;;;4923805;29;20688;-84
2021/07/14 03:39:16;;;;;;;22.03;19.17;;;19.70;99.90;;;;;;4922252;28;20233;-84
2021/07/14 03:41:49;;;;;;;22.00;19.30;;;19.70;99.90;;;;;;4938090;28;20230;-84
2021/07/14 03:44:21;;;;;;;21.57;19.30;;;19.80;99.90;;;;;;4932518;28;20210;-85
2021/07/14 03:46:50;;;;;;;21.17;18.97;;;19.80;99.90;;;;;;4918469;29;21581;-84
2021/07/14 03:49:20;;;;;;;20.33;18.33;;;19.80;99.90;;;;;;4923746;29;20217;-84
2021/07/14 03:51:50;;;;;;;21.37;19.17;;;19.90;99.90;;;;;;4913887;29;20301;-83
2021/07/14 03:54:21;;;;;;;21.63;19.53;;;19.90;99.90;;;;;;4920401;29;20289;-84
2021/07/14 03:56:50;;;;;;;22.40;20.20;;;19.90;99.90;;;;;;4919656;29;20642;-87
2021/07/14 03:59:20;;;;;;;21.17;18.80;;;19.90;99.90;;;;;;4926435;29;20550;-84
2021/07/14 04:01:50;;;;;;;23.80;19.90;;;20.00;99.90;;;;;;4932744;29;20222;-85
2021/07/14 04:04:19;;;;;;;24.83;21.43;;;20.00;99.90;;;;;;4945275;28;20198;-84
2021/07/14 04:06:52;;;;;;;21.67;19.40;;;20.00;99.90;;;;;;4943684;28;20206;-84
2021/07/14 04:09:24;;;;;;;21.53;19.43;;;20.10;99.90;;;;;;4928251;28;20185;-84
2021/07/14 04:11:56;;;;;;;21.43;19.13;;;20.10;99.90;;;;;;4945044;28;20226;-85
2021/07/14 04:14:28;;;;;;;21.43;19.17;;;20.20;99.90;;;;;;4922321;29;20945;-85
2021/07/14 04:16:58;;;;;;;21.43;19.30;;;20.40;99.90;;;;;;4922825;28;20312;-85
2021/07/14 04:19:27;;;;;;;21.50;19.20;;;20.50;99.90;;;;;;4923790;29;20679;-84
2021/07/14 04:21:57;;;;;;;21.23;19.20;;;20.60;99.90;;;;;;4917690;29;20316;-84
2021/07/14 04:24:26;;;;;;;20.93;18.73;;;20.70;99.90;;;;;;4926923;28;20276;-83
2021/07/14 04:26:55;;;;;;;22.80;20.37;;;20.80;99.90;;;;;;4920725;28;20210;-85
2021/07/14 04:29:26;;;;;;;20.70;18.67;;;20.90;99.90;;;;;;4927696;29;20206;-83
2021/07/14 04:31:55;;;;;;;20.10;18.20;;;20.90;99.90;;;;;;4927580;29;20568;-84
2021/07/14 04:34:24;;;;;;;20.93;18.83;;;21.00;99.90;;;;;;4930925;29;20253;-84
2021/07/14 04:36:53;;;;;;;21.33;19.13;;;21.00;99.90;;;;;;4941728;28;20214;-83
2021/07/14 04:39:22;;;;;;;21.23;18.85;;;21.10;99.90;;;;;;4938190;29;20304;-83
2021/07/14 04:41:51;;;;;;;20.75;18.65;;;21.10;99.90;;;;;;4944823;29;20561;-85
2021/07/14 04:44:32;;;;;;;21.67;19.40;;;21.20;99.90;;;;;;4945445;29;20202;-83
2021/07/14 04:47:02;;;;;;;22.25;18.15;;;21.30;99.90;;;;;;4929854;29;20214;-84
2021/07/14 04:49:31;;;;;;;23.48;19.30;;;21.50;99.90;;;;;;4940754;29;20204;-82
2021/07/14 04:51:59;;;;;;;19.90;18.00;;;21.60;99.90;;;;;;4929380;29;20229;-85
2021/07/14 04:54:28;;;;;;;21.38;19.33;;;21.70;99.90;;;;;;4917453;29;20205;-84
2021/07/14 04:56:57;;;;;;;20.33;18.33;;;21.80;99.90;;;;;;4912079;29;20213;-87
2021/07/14 04:59:27;;;;;;;20.10;18.05;;;21.90;99.90;;;;;;4920966;29;20268;-84
2021/07/14 05:01:56;;;;;;;22.20;18.80;;;22.10;99.90;;;;;;4920249;28;20241;-83
2021/07/14 05:04:26;;;;;;;20.35;18.35;;;22.20;99.90;;;;;;4923485;28;20249;-83
2021/07/14 05:06:54;;;;;;;21.67;18.55;;;22.30;99.90;;;;;;4925766;29;20242;-84
2021/07/14 05:09:24;;;;;;;20.83;18.73;;;22.40;99.90;;;;;;4920006;28;20202;-85
2021/07/14 05:11:57;;;;;;;20.67;18.45;;;22.40;99.90;;;;;;4922411;29;20269;-84
2021/07/14 05:14:26;;;;;;;23.98;19.25;;;22.50;99.90;;;;;;4920720;28;20281;-82
2021/07/14 05:16:55;;;;;;;21.05;18.95;;;22.50;99.90;;;;;;4920079;28;20703;-85
2021/07/14 05:19:25;;;;;;;20.67;18.73;;;22.60;99.90;;;;;;4937525;28;20210;-83
2021/07/14 05:21:54;;;;;;;21.35;19.10;;;22.70;99.90;;;;;;4909727;29;20496;-84
2021/07/14 05:24:22;;;;;;;22.45;20.15;;;22.80;99.90;;;;;;4933216;28;20226;-84
2021/07/14 05:26:51;;;;;;;22.77;19.92;;;22.80;99.90;;;;;;4933930;28;20297;-84
2021/07/14 05:29:20;;;;;;;22.33;20.23;;;23.00;99.90;;;;;;4921221;28;20603;-84
2021/07/14 05:31:49;;;;;;;22.95;20.65;;;23.10;98.70;;;;;;4918525;29;20221;-84
2021/07/14 05:34:18;;;;;;;22.88;20.60;;;23.20;98.00;;;;;;4916658;29;20714;-87
2021/07/14 05:36:49;;;;;;;22.42;20.17;;;23.30;98.30;;;;;;4917159;29;20214;-84
2021/07/14 05:39:18;;;;;;;23.30;21.05;;;23.30;97.90;;;;;;4913326;29;20297;-83
2021/07/14 05:41:46;;;;;;;23.35;20.88;;;23.30;97.20;;;;;;4925370;29;20293;-85
2021/07/14 05:44:16;;;;;;;25.10;22.00;;;23.40;98.60;;;;;;4934745;28;20466;-85
2021/07/14 05:46:44;;;;;;;24.65;22.25;;;23.50;97.30;;;;;;4943775;28;20194;-84
2021/07/14 05:49:13;;;;;;;24.55;22.10;;;23.50;97.50;;;;;;4910037;29;20511;-85
2021/07/14 05:51:44;;;;;;;24.33;21.85;;;23.60;97.30;;;;;;4915940;28;20214;-86
2021/07/14 05:54:14;;;;;;;24.88;22.27;;;23.70;97.00;;;;;;4917237;28;20263;-85
2021/07/14 05:56:43;;;;;;;25.30;22.88;;;23.80;97.00;;;;;;4917357;29;20214;-85
2021/07/14 05:59:12;;;;;;;25.33;22.83;;;23.90;96.90;;;;;;4907698;29;20233;-84
2021/07/14 06:01:40;;;;;;;25.35;22.95;;;24.00;96.80;;;;;;4914389;29;20226;-83
2021/07/14 06:04:09;;;;;;;23.95;21.40;;;24.10;96.10;;;;;;4914878;29;20212;-84
2021/07/14 06:06:37;;;;;;;26.45;23.58;;;24.20;96.30;;;;;;4915228;28;20497;-82
2021/07/14 06:09:08;;;;;;;25.25;22.75;;;24.30;96.00;;;;;;4919087;28;20246;-84
2021/07/14 06:11:39;;;;;;;26.23;23.60;;;24.40;95.70;;;;;;4913531;28;20214;-84
2021/07/14 06:14:07;;;;;;;25.23;22.73;;;24.50;95.10;;;;;;4915521;29;20300;-85
2021/07/14 06:16:36;;;;;;;24.67;22.15;;;24.70;94.90;;;;;;4914312;28;20214;-84
2021/07/14 06:19:05;;;;;;;25.63;22.90;;;24.70;94.70;;;;;;4913667;29;20209;-81
2021/07/14 06:21:34;;;;;;;25.27;22.63;;;24.70;95.40;;;;;;4911436;28;20237;-83
2021/07/14 06:24:02;;;;;;;24.98;22.58;;;24.80;95.00;;;;;;4912830;28;20210;-86
2021/07/14 06:26:31;;;;;;;24.73;22.33;;;24.90;94.80;;;;;;4915685;29;20581;-84
2021/07/14 06:29:01;;;;;;;25.45;23.00;;;25.00;94.70;;;;;;4920786;28;20206;-83
2021/07/14 06:31:30;;;;;;;26.42;23.75;;;25.00;94.70;;;;;;4919051;29;20212;-84
2021/07/14 06:33:58;;;;;;;27.83;24.92;;;25.20;94.20;;;;;;4913938;28;20958;-84
2021/07/14 06:36:27;;;;;;;25.58;23.08;;;25.30;94.00;;;;;;4896103;29;20260;-84
2021/07/14 06:39:01;;;;;;;26.35;23.75;;;25.40;93.50;;;;;;4905268;28;20214;-83
2021/07/14 06:41:30;;;;;;;25.73;23.05;;;25.60;93.30;;;;;;4922962;28;20889;-84
2021/07/14 06:43:59;;;;;;;25.42;22.77;;;25.80;92.80;;;;;;4929727;28;20225;-83
2021/07/14 06:46:30;;;;;;;26.98;23.05;;;25.70;93.90;;;;;;4934749;28;21046;-84
2021/07/14 06:48:59;;;;;;;29.67;23.17;;;25.80;93.00;;;;;;4936508;28;20401;-84
2021/07/14 06:51:28;;;;;;;27.25;24.48;;;25.70;93.30;;;;;;4929699;28;21000;-84
2021/07/14 06:53:57;;;;;;;29.48;24.75;;;25.60;93.50;;;;;;4938818;28;20209;-82
2021/07/14 06:56:26;;;;;;;27.85;24.15;;;25.70;94.20;;;;;;4908266;29;20779;-82
2021/07/14 06:58:55;;;;;;;29.00;25.90;;;25.80;93.50;;;;;;4928796;28;20401;-84
2021/07/14 07:01:23;;;;;;;28.08;24.33;;;25.90;93.40;;;;;;4925301;28;20213;-87
2021/07/14 07:03:54;;;;;;;30.83;25.90;;;26.00;93.20;;;;;;4933882;28;20198;-82
2021/07/14 07:06:24;;;;;;;29.55;26.45;;;26.00;93.50;;;;;;4929248;28;20234;-84
2021/07/14 07:08:53;;;;;;;29.45;26.50;;;26.00;93.10;;;;;;4916727;29;20214;-84
2021/07/14 07:11:22;;;;;;;28.67;25.88;;;26.20;92.80;;;;;;4920348;28;20352;-83
2021/07/14 07:13:51;;;;;;;29.23;25.83;;;26.20;93.00;;;;;;4921187;29;20225;-84
2021/07/14 07:16:21;;;;;;;30.40;27.25;;;26.50;93.30;;;;;;4914684;29;20210;-84
2021/07/14 07:18:55;;;;;;;30.67;27.58;;;26.70;92.00;;;;;;4892866;29;20232;-84
2021/07/14 07:21:26;;;;;;;29.95;26.98;;;26.80;92.30;;;;;;4903526;29;20527;-84
2021/07/14 07:23:55;;;;;;;31.25;27.20;;;26.80;92.00;;;;;;4915978;29;20261;-82
2021/07/14 07:26:25;;;;;;;31.50;28.33;;;26.80;92.40;;;;;;4909845;28;20633;-85
2021/07/14 07:29:11;;;;;;;28.17;25.25;;;27.00;92.20;;;;;;4899346;28;20324;-83
2021/07/14 07:31:39;;;;;;;27.83;24.98;;;27.20;91.80;;;;;;4895205;29;20414;-85
2021/07/14 07:34:09;;;;;;;28.73;25.75;;;27.30;91.30;;;;;;4900630;28;20232;-85
2021/07/14 07:36:38;;;;;;;27.23;24.38;;;27.40;90.50;;;;;;4913681;29;20467;-84
2021/07/14 07:39:08;;;;;;;27.02;24.42;;;27.50;91.10;;;;;;4908696;28;20285;-84
2021/07/14 07:41:36;;;;;;;28.25;25.65;;;27.50;90.80;;;;;;4903502;29;20584;-83
2021/07/14 07:44:07;;;;;;;28.63;25.67;;;27.60;90.60;;;;;;4904886;29;20502;-85
2021/07/14 07:46:36;;;;;;;28.30;25.30;;;27.60;90.70;;;;;;4879831;29;20777;-85
2021/07/14 07:49:06;;;;;;;27.30;24.67;;;27.60;90.90;;;;;;4898455;28;20294;-82
2021/07/14 07:51:37;;;;;;;25.70;23.17;;;27.70;90.70;;;;;;4899246;28;20266;-84
2021/07/14 07:54:06;;;;;;;24.75;21.85;;;28.00;89.50;;;;;;4902595;29;20394;-84
2021/07/14 07:56:34;;;;;;;24.45;22.05;;;28.20;88.60;;;;;;4909698;29;20525;-83
2021/07/14 07:59:05;;;;;;;22.13;19.98;;;28.20;88.50;;;;;;4916402;28;20214;-84
2021/07/14 08:01:36;;;;;;;23.50;21.23;;;28.30;88.60;;;;;;4907702;28;20418;-83
2021/07/14 08:04:06;;;;;;;23.20;20.92;;;28.40;88.60;;;;;;4934697;28;20218;-83
2021/07/14 08:06:36;;;;;;;23.00;20.83;;;28.50;88.60;;;;;;4913148;28;20211;-85
2021/07/14 08:09:06;;;;;;;23.90;21.55;;;28.60;88.30;;;;;;4917269;28;20483;-85
2021/07/14 08:11:36;;;;;;;22.50;20.27;;;28.60;88.70;;;;;;4908590;28;20207;-85
2021/07/14 08:14:05;;;;;;;23.45;20.77;;;28.70;88.20;;;;;;4916938;29;20585;-83
2021/07/14 08:16:34;;;;;;;22.55;20.23;;;28.70;88.20;;;;;;4913517;29;20269;-84
2021/07/14 08:19:03;;;;;;;21.15;19.08;;;28.90;88.20;;;;;;4905450;28;20324;-86
2021/07/14 08:21:32;;;;;;;21.15;19.02;;;29.00;87.70;;;;;;4910717;28;20206;-84
2021/07/14 08:24:02;;;;;;;21.88;19.83;;;29.10;87.20;;;;;;4929304;28;20233;-84
2021/07/14 08:26:31;;;;;;;20.98;19.10;;;29.10;88.10;;;;;;4938470;28;20300;-84
2021/07/14 08:28:59;;;;;;;20.40;18.30;;;29.30;88.10;;;;;;4908990;29;20264;-84
2021/07/14 08:31:28;;;;;;;22.10;19.70;;;29.30;87.80;;;;;;4897650;29;20206;-84
2021/07/14 08:33:57;;;;;;;21.77;19.70;;;29.40;88.00;;;;;;4899418;28;20849;-85
2021/07/14 08:36:26;;;;;;;23.45;21.10;;;29.40;87.80;;;;;;4912380;28;20615;-85
2021/07/14 08:38:54;;;;;;;243.73;70.00;;;29.40;87.20;;;;;;4906907;29;20213;-87
2021/07/14 08:41:26;;;;;;;20.02;18.33;;;29.50;87.90;;;;;;4909549;29;20245;-85
2021/07/14 08:43:57;;;;;;;19.83;17.90;;;29.70;88.00;;;;;;4912282;29;20240;-83
2021/07/14 08:46:27;;;;;;;20.27;18.55;;;29.90;87.80;;;;;;4929168;29;20440;-85
2021/07/14 08:48:58;;;;;;;21.30;19.50;;;29.90;87.30;;;;;;4911446;29;20872;-82
2021/07/14 08:51:27;;;;;;;21.02;19.02;;;29.80;87.00;;;;;;4926643;29;20548;-82
2021/07/14 08:53:55;;;;;;;21.58;19.33;;;29.80;87.20;;;;;;4904486;29;20249;-83
2021/07/14 08:56:25;;;;;;;21.15;19.15;;;30.00;87.40;;;;;;4912906;28;20303;-83
2021/07/14 08:58:54;;;;;;;21.45;19.55;;;30.10;87.60;;;;;;4912460;29;20216;-85
2021/07/14 09:01:23;;;;;;;20.90;18.98;;;30.20;87.20;;;;;;4914291;29;21567;-85
2021/07/14 09:03:51;;;;;;;21.38;19.50;;;30.20;87.00;;;;;;4916317;29;20549;-84
2021/07/14 09:06:20;;;;;;;21.60;19.55;;;30.20;87.30;;;;;;4902926;29;20230;-85
2021/07/14 09:08:49;;;;;;;21.58;19.58;;;30.20;87.30;;;;;;4898105;29;20293;-84
2021/07/14 09:11:19;;;;;;;20.60;18.77;;;30.10;87.50;;;;;;4896610;29;20435;-84
2021/07/14 09:13:49;;;;;;;21.17;19.17;;;30.10;87.50;;;;;;4903497;29;20218;-85
2021/07/14 09:16:34;;;;;;;20.95;19.05;;;30.20;87.40;;;;;;4906925;28;20237;-86
2021/07/14 09:19:12;;;;;;;20.92;19.13;;;30.20;87.80;;;;;;4896026;29;20604;-85
2021/07/14 09:21:42;;;;;;;19.75;17.80;;;30.30;87.40;;;;;;4912568;29;20218;-85
2021/07/14 09:24:29;;;;;;;21.10;19.00;;;30.30;87.40;;;;;;4921427;28;20229;-86
2021/07/14 09:27:00;;;;;;;20.77;18.88;;;30.30;87.30;;;;;;4928547;28;20485;-86
2021/07/14 09:29:31;;;;;;;21.13;19.02;;;30.40;87.50;;;;;;4915066;28;20458;-86
2021/07/14 09:31:59;;;;;;;20.40;18.50;;;30.50;87.40;;;;;;4894664;29;20527;-83
2021/07/14 09:34:30;;;;;;;19.98;18.27;;;30.70;87.50;;;;;;4884126;29;20470;-85
2021/07/14 09:37:01;;;;;;;20.90;19.13;;;30.70;87.70;;;;;;4908690;29;20510;-83
2021/07/14 09:39:35;;;;;;;20.55;18.65;;;30.70;87.30;;;;;;4914450;29;20372;-83
2021/07/14 09:42:08;;;;;;;21.20;19.17;;;30.70;87.70;;;;;;4911056;29;20217;-87
2021/07/14 09:44:45;;;;;;;20.48;18.73;;;30.70;87.70;;;;;;4917339;29;20229;-85
2021/07/14 09:47:20;;;;;;;21.02;19.10;;;30.70;87.00;;;;;;4903129;29;20237;-84
2021/07/14 09:49:50;;;;;;;20.38;18.58;;;30.60;87.40;;;;;;4905485;29;20209;-85
2021/07/14 09:52:20;;;;;;;19.95;17.95;;;30.80;87.70;;;;;;4902619;29;20205;-85
2021/07/14 09:54:49;;;;;;;19.58;17.90;;;30.90;87.10;;;;;;4899541;28;20221;-82
2021/07/14 09:57:19;;;;;;;21.38;19.27;;;30.90;87.50;;;;;;4898376;29;20853;-84
2021/07/14 09:59:50;;;;;;;20.60;18.73;;;30.90;87.30;;;;;;4921766;28;20217;-83
2021/07/14 10:02:18;;;;;;;21.98;19.70;;;30.90;87.50;;;;;;4923245;28;20412;-85
2021/07/14 10:04:47;;;;;;;22.08;20.00;;;30.90;87.50;;;;;;4917742;29;20265;-85
2021/07/14 10:07:26;;;;;;;21.80;19.83;;;30.70;87.50;;;;;;4910227;28;20233;-83
2021/07/14 10:09:57;;;;;;;21.73;19.65;;;30.70;87.50;;;;;;4905274;29;20210;-86
2021/07/14 10:12:28;;;;;;;20.70;18.92;;;30.70;87.80;;;;;;4908377;29;20214;-87
2021/07/14 10:15:18;;;;;;;22.25;20.23;;;30.80;88.10;;;;;;4914394;28;20205;-85
2021/07/14 10:17:48;;;;;;;21.88;19.70;;;30.90;87.90;;;;;;4934284;28;20230;-85
2021/07/14 10:20:29;;;;;;;21.40;19.27;;;31.10;87.60;;;;;;4932484;28;20381;-83
2021/07/14 10:23:01;;;;;;;20.75;18.80;;;31.10;88.10;;;;;;4909210;28;20220;-86
2021/07/14 10:25:30;;;;;;;20.90;18.98;;;31.10;87.40;;;;;;4915783;29;20399;-83
2021/07/14 10:28:04;;;;;;;20.65;18.80;;;31.20;87.00;;;;;;4919683;28;20218;-84
2021/07/14 10:30:34;;;;;;;20.92;19.00;;;31.10;87.10;;;;;;4913246;28;20281;-86
2021/07/14 10:33:05;;;;;;;21.27;19.17;;;30.90;87.30;;;;;;4913453;28;20630;-84
2021/07/14 10:35:38;;;;;;;21.25;19.35;;;30.90;87.40;;;;;;4917328;28;20213;-84
2021/07/14 10:38:18;;;;;;;22.55;20.30;;;31.10;87.10;;;;;;4886703;29;20284;-83
2021/07/14 10:40:49;;;;;;;22.65;20.55;;;31.30;87.80;;;;;;4913170;28;20549;-84
2021/07/14 10:43:21;;;;;;;22.60;20.45;;;31.50;87.20;;;;;;4925631;28;20316;-86
2021/07/14 10:45:52;;;;;;;21.45;19.35;;;31.50;86.90;;;;;;4934418;29;20403;-86
2021/07/14 10:48:24;;;;;;;20.85;19.05;;;31.60;87.00;;;;;;4924559;29;20210;-87
2021/07/14 10:50:55;;;;;;;21.27;19.27;;;31.60;86.40;;;;;;4916541;29;20214;-82
2021/07/14 10:53:25;;;;;;;20.95;19.02;;;31.60;86.70;;;;;;4920803;28;20237;-85
2021/07/14 10:55:56;;;;;;;20.98;19.27;;;31.60;86.70;;;;;;4912136;29;20216;-84
2021/07/14 10:58:26;;;;;;;20.00;18.08;;;31.50;86.70;;;;;;4922336;28;20206;-86
2021/07/14 11:00:57;;;;;;;20.70;18.90;;;31.70;86.60;;;;;;4922988;28;20206;-85
2021/07/14 11:03:44;;;;;;;20.00;18.17;;;31.50;86.60;;;;;;4905663;29;20182;-85
2021/07/14 11:06:15;;;;;;;21.27;19.23;;;31.70;86.50;;;;;;4920334;28;20199;-86
2021/07/14 11:08:46;;;;;;;20.35;18.33;;;31.70;86.90;;;;;;4910566;28;20240;-85
2021/07/14 11:11:18;;;;;;;20.60;18.52;;;31.50;86.30;;;;;;4904388;28;20210;-84
2021/07/14 11:13:50;;;;;;;19.50;17.67;;;31.70;86.70;;;;;;4915402;29;20514;-85
2021/07/14 11:16:30;;;;;;;21.05;18.23;;;32.00;86.20;;;;;;4927592;28;20225;-86
2021/07/14 11:19:05;;;;;;;18.02;16.45;;;32.10;85.90;;;;;;4907674;28;20513;-86
2021/07/14 11:21:58;;;;;;;19.23;17.45;;;32.10;85.40;;;;;;4916262;28;20216;-84
2021/07/14 11:24:53;;;;;;;19.02;17.13;;;32.10;84.90;;;;;;4929348;28;20285;-86
2021/07/14 11:27:45;;;;;;;19.92;17.80;;;32.10;85.40;;;;;;4929216;28;20214;-84
2021/07/14 11:30:42;;;;;;;18.30;16.80;;;32.30;85.30;;;;;;4914433;28;20232;-86
2021/07/14 11:33:27;;;;;;;17.48;15.95;;;32.30;85.10;;;;;;4928118;28;20547;-84
2021/07/14 11:35:59;;;;;;;19.10;17.33;;;32.30;85.10;;;;;;4934216;29;20369;-85
2021/07/14 11:38:31;;;;;;;18.85;16.65;;;32.50;84.40;;;;;;4929659;29;20333;-85
2021/07/14 11:41:03;;;;;;;18.73;17.02;;;32.70;84.40;;;;;;4905247;29;20669;-85
2021/07/14 11:43:41;;;;;;;18.83;17.20;;;32.90;84.50;;;;;;4918018;28;20435;-84
2021/07/14 11:46:14;;;;;;;18.50;16.65;;;33.00;84.40;;;;;;4934365;28;20516;-86
2021/07/14 11:48:48;;;;;;;18.17;16.33;;;32.90;84.00;;;;;;4926966;29;20464;-84
2021/07/14 11:51:25;;;;;;;18.52;16.90;;;32.80;83.70;;;;;;4934031;28;20198;-86
2021/07/14 11:53:55;;;;;;;17.77;16.27;;;32.80;84.00;;;;;;4932455;29;20220;-83
2021/07/14 11:56:38;;;;;;;17.00;15.40;;;33.00;84.40;;;;;;4927473;28;20238;-85
2021/07/14 11:59:10;;;;;;;17.85;16.13;;;33.20;83.40;;;;;;4927276;28;20406;-84
2021/07/14 12:02:00;;;;;;;17.88;16.00;;;33.30;83.50;;;;;;4923825;28;20199;-83
2021/07/14 12:04:37;;;;;;;18.25;16.27;;;33.30;82.60;;;;;;4928179;28;20230;-85
2021/07/14 12:07:09;;;;;;;19.13;17.23;;;33.30;83.10;;;;;;4929892;28;20455;-83
2021/07/14 12:09:49;;;;;;;18.15;16.52;;;33.10;83.70;;;;;;4927679;28;20202;-86
2021/07/14 12:12:23;;;;;;;17.55;15.95;;;33.00;83.60;;;;;;4927566;28;20454;-82
2021/07/14 12:14:54;;;;;;;18.35;16.50;;;32.80;83.10;;;;;;4919077;28;20660;-85
2021/07/14 12:17:25;;;;;;;18.10;16.45;;;32.70;83.40;;;;;;4931252;28;20486;-84
2021/07/14 12:19:57;;;;;;;18.70;16.85;;;32.60;83.40;;;;;;4922703;28;20206;-85
2021/07/14 12:22:28;;;;;;;18.25;16.42;;;32.60;83.60;;;;;;4924566;29;20417;-84
2021/07/14 12:25:00;;;;;;;18.70;16.65;;;32.50;83.00;;;;;;4930737;28;20257;-84
2021/07/14 12:27:32;;;;;;;17.60;16.13;;;32.60;83.20;;;;;;4932874;28;20292;-85
2021/07/14 12:30:05;;;;;;;18.05;16.25;;;32.50;83.10;;;;;;4927970;28;20209;-85
2021/07/14 12:32:37;;;;;;;18.08;16.15;;;32.50;83.30;;;;;;4932267;28;20198;-83
2021/07/14 12:35:11;;;;;;;18.42;16.73;;;32.50;83.50;;;;;;4935288;28;20764;-81
2021/07/14 12:37:46;;;;;;;18.15;16.55;;;32.50;83.60;;;;;;4928689;28;20229;-84
2021/07/14 12:40:26;;;;;;;18.00;16.35;;;32.50;83.30;;;;;;4940700;28;20251;-88
2021/07/14 12:42:56;;;;;;;19.88;17.13;;;32.60;83.70;;;;;;4942962;28;20201;-84
2021/07/14 12:45:30;;;;;;;17.05;15.38;;;32.70;83.20;;;;;;4941712;28;20236;-82
2021/07/14 12:48:02;;;;;;;17.92;16.08;;;32.70;83.10;;;;;;4938559;28;20592;-84
2021/07/14 12:50:34;;;;;;;17.35;15.35;;;32.90;83.20;;;;;;4937058;28;20276;-85
2021/07/14 12:53:06;;;;;;;17.75;16.00;;;33.00;82.90;;;;;;4888627;29;20648;-85
2021/07/14 12:55:39;;;;;;;17.42;15.68;;;33.00;82.90;;;;;;4933907;29;20201;-86